Latest Coastal Weather Observations for St Lawrence

IDQ60701

Issued at 2:25 pm EST Friday 25 April 2014 (issued every 10 minutes, with the page automatically refreshed every 10 minutes)

About coastal observations | Map of coastal stations | Coastal observations for QLD | Marine services | Other Formats
Station Details ID: 033210 Name: ST LAWRENCE Lat: -22.35 Lon: 149.52 Height: 9.19 m
Data from the previous 72 hours. | See also: Recent months at St Lawrence
Date/Time
EST
Temp

°C
Wind Pressure Rain
since 9am
mm
Weather Cloud Vis
km
Sea
Height
m
Swell
Dir
 
Speed
knots
Gust
knots
hPa Trend Height
m
Period
s
Dir
25/02:00pm 28.6 ESE 4 11 1012.6 - 0.0 - - - - - - -
25/01:30pm 28.3 E 5 9 1013.2 - 0.0 - - - - - - -
25/01:00pm 27.4 E 6 9 1013.6 - 0.0 - - - - - - -
25/12:30pm 27.1 SSE 4 7 1014.0 - 0.0 - - - - - - -
25/12:00pm 27.4 SSE 3 6 1014.3 - 0.0 - - - - - - -
25/11:30am 27.2 SE 5 7 1015.1 - 0.0 - - - - - - -
25/11:00am 26.6 SSE 5 7 1015.6 - 0.0 - - - - - - -
25/10:30am 26.2 S 5 8 1015.9 - 0.0 - - - - - - -
25/10:00am 25.5 SSE 6 11 1016.1 - 0.0 - - - - - - -
25/09:30am 25.1 S 6 10 1016.3 - 0.0 - - - - - - -
25/09:00am 24.3 S 5 7 1016.3 - 1.4 - - - - - - -
25/08:30am 23.4 SSE 6 8 1016.3 - 1.4 - - - - - - -
25/08:00am 22.6 S 5 7 1016.1 - 1.4 - - - - - - -
25/07:30am 22.1 S 6 9 1015.9 - 1.4 - - - - - - -
25/07:00am 21.6 SSE 5 7 1015.4 - 1.4 - - - - - - -
25/06:30am 21.4 S 5 7 1015.0 - 1.4 - - - - - - -
25/06:00am 21.4 S 5 7 1014.5 - 1.4 - - - - - - -
25/05:30am 21.5 S 5 7 1014.2 - 1.4 - - - - - - -
25/05:00am 21.5 S 5 6 1013.8 - 1.4 - - - - - - -
25/04:30am 21.7 SSW 4 6 1013.5 - 1.4 - - - - - - -
25/04:00am 21.8 S 5 6 1013.6 - 1.4 - - - - - - -
25/03:30am 22.0 SSE 5 7 1013.6 - 1.4 - - - - - - -
25/03:00am 22.2 SSE 3 4 1013.5 - 1.4 - - - - - - -
25/02:30am 22.3 S 4 5 1013.7 - 1.4 - - - - - - -
25/02:00am 22.3 S 4 5 1013.9 - 1.4 - - - - - - -
25/01:30am 22.3 S 4 6 1014.0 - 1.4 - - - - - - -
25/01:00am 22.4 SSE 4 5 1014.2 - 1.4 - - - - - - -
25/12:30am 22.6 S 4 5 1014.7 - 1.4 - - - - - - -
25/12:00am 22.6 S 4 5 1014.6 - 1.4 - - - - - - -
 
Date/Time
EST
Temp

°C
Wind Pressure Rain
since 9am
mm
Weather Cloud Vis
km
Sea
Height
m
Swell
Dir
 
Speed
knots
Gust
knots
hPa Trend Height
m
Period
s
Dir
24/11:30pm 22.5 S 3 5 1014.7 - 1.4 - - - - - - -
24/11:00pm 22.6 CALM 0 0 1015.0 - 1.4 - - - - - - -
24/10:30pm 22.6 CALM 0 0 1015.1 - 1.4 - - - - - - -
24/10:00pm 22.7 CALM 0 0 1015.4 - 1.4 - - - - - - -
24/09:30pm 23.0 CALM 0 0 1015.5 - 1.4 - - - - - - -
24/09:00pm 23.3 N 1 4 1015.4 - 1.4 - - - - - - -
24/08:30pm 23.2 NE 1 3 1015.2 - 1.4 - - - - - - -
24/08:00pm 23.4 NE 5 6 1015.0 - 1.4 - - - - - - -
24/07:30pm 23.6 NE 5 7 1014.5 - 1.4 - - - - - - -
24/07:00pm 23.8 NE 7 9 1014.2 - 1.4 - - - - - - -
24/06:30pm 24.0 NE 7 10 1013.8 - 1.4 - - - - - - -
24/06:00pm 24.4 NNE 7 10 1013.1 - 1.4 - - - - - - -
24/05:30pm 24.9 NNE 6 7 1012.8 - 1.4 - - - - - - -
24/05:00pm 25.2 NE 6 8 1012.6 - 1.4 - - - - - - -
24/04:30pm 25.7 NE 7 10 1012.3 - 1.4 - - - - - - -
24/04:00pm 27.0 NE 6 9 1012.0 - 1.4 - - - - - - -
24/03:30pm 27.4 ENE 4 7 1011.9 - 1.4 - - - - - - -
24/03:00pm 27.5 E 4 6 1012.0 - 1.4 - - - - - - -
24/02:30pm 27.1 ESE 3 5 1012.2 - 1.4 - - - - - - -
24/02:00pm 26.4 SW 4 6 1012.5 - 1.4 - - - - - - -
24/01:30pm 26.9 SSW 2 5 1012.8 - 1.4 - - - - - - -
24/01:00pm 25.6 SE 4 6 1013.3 - 1.4 - - - - - - -
24/12:30pm 25.0 SSW 4 7 1013.9 - 1.4 - - - - - - -
24/12:00pm 23.9 S 5 7 1014.4 - 1.4 - - - - - - -
24/11:30am 23.0 S 6 8 1014.8 - 1.2 - - - - - - -
24/11:00am 22.6 S 5 7 1015.3 - 1.2 - - - - - - -
24/10:30am 22.3 S 5 7 1016.1 - 1.0 - - - - - - -
24/10:00am 21.9 S 6 9 1015.8 - 1.0 - - - - - - -
24/09:30am 21.6 S 6 9 1016.2 - 0.4 - - - - - - -
24/09:00am 21.7 S 7 10 1016.1 - 1.6 - - - - - - -
24/08:30am 21.7 S 5 8 1016.1 - 1.4 - - - - - - -
24/08:00am 21.5 S 3 6 1015.4 - 1.4 - - - - - - -
24/07:30am 21.2 SSE 6 9 1014.4 - 1.4 - - - - - - -
24/07:00am 21.0 SW 6 9 1015.3 - 1.4 - - - - - - -
24/06:30am 20.9 NE 5 7 1013.9 - 1.4 - - - - - - -
24/06:00am 20.9 S 3 5 1014.1 - 1.4 - - - - - - -
24/05:30am 20.9 SW 4 6 1014.6 - 1.4 - - - - - - -
24/05:00am 21.0 NNE 4 7 1013.6 - 1.4 - - - - - - -
24/04:30am 20.9 SSE 4 6 1013.6 - 1.4 - - - - - - -
24/04:00am 20.9 SW 3 5 1013.7 - 1.4 - - - - - - -
24/03:30am 20.9 SSW 4 4 1014.2 - 1.4 - - - - - - -
24/03:00am 21.0 S 3 4 1014.1 - 1.4 - - - - - - -
24/02:30am 21.0 SW 4 5 1014.9 - 1.4 - - - - - - -
24/02:00am 21.1 S 4 5 1014.0 - 1.4 - - - - - - -
24/01:30am 21.2 S 3 5 1014.3 - 1.4 - - - - - - -
24/01:00am 21.4 S 3 5 1015.1 - 1.4 - - - - - - -
24/12:30am 21.5 SSW 4 5 1015.6 - 1.4 - - - - - - -
24/12:00am 21.5 SSW 1 6 1015.4 - 1.4 - - - - - - -
 
Date/Time
EST
Temp

°C
Wind Pressure Rain
since 9am
mm
Weather Cloud Vis
km
Sea
Height
m
Swell
Dir
 
Speed
knots
Gust
knots
hPa Trend Height
m
Period
s
Dir
23/11:30pm 21.7 S 4 6 1016.2 - 1.4 - - - - - - -
23/11:00pm 21.7 S 3 5 1016.3 - 1.4 - - - - - - -
23/10:30pm 21.8 S 3 5 1016.4 - 1.4 - - - - - - -
23/10:00pm 21.8 S 4 5 1016.7 - 1.4 - - - - - - -
23/09:30pm 21.9 CALM 0 0 1017.0 - 1.4 - - - - - - -
23/09:00pm 22.1 CALM 0 0 1016.8 - 1.4 - - - - - - -
23/08:30pm 21.9 CALM 0 0 1016.6 - 1.4 - - - - - - -
23/08:00pm 21.9 CALM 0 0 1016.2 - 1.4 - - - - - - -
23/07:30pm 21.9 SW 3 4 1015.8 - 1.4 - - - - - - -
23/07:00pm 22.0 SSW 3 4 1015.5 - 1.2 - - - - - - -
23/06:30pm 22.0 SE 1 4 1015.4 - 1.2 - - - - - - -
23/06:00pm 22.0 SE 3 5 1014.6 - 1.2 - - - - - - -
23/05:30pm 22.3 SE 4 5 1014.8 - 1.2 - - - - - - -
23/05:00pm 22.4 SE 5 6 1014.6 - 1.2 - - - - - - -
23/04:30pm 22.5 E 5 7 1014.4 - 1.2 - - - - - - -
23/04:00pm 22.7 E 4 6 1013.8 - 1.0 - - - - - - -
23/03:30pm 22.8 ENE 5 7 1014.2 - 0.6 - - - - - - -
23/03:00pm 23.1 ESE 4 5 1014.1 - 0.6 - - - - - - -
23/02:30pm 23.3 E 3 5 1014.4 - 0.6 - - - - - - -
23/02:00pm 23.2 ENE 5 8 1014.6 - 0.6 - - - - - - -
23/01:30pm 24.6 CALM 0 0 1014.7 - 0.4 - - - - - - -
23/01:00pm 24.6 S 3 4 1015.2 - 0.4 - - - - - - -
23/12:30pm 24.9 SSE 4 5 1015.7 - 0.4 - - - - - - -
23/12:00pm 25.1 S 5 8 1015.8 - 0.4 - - - - - - -
23/11:30am 24.7 S 5 8 1016.1 - 0.4 - - - - - - -
23/11:00am 23.7 S 5 7 1016.7 - 0.4 - - - - - - -
23/10:30am 23.2 S 6 9 1016.6 - 0.4 - - - - - - -
23/10:00am 21.8 SSW 4 6 1016.9 - 0.4 - - - - - - -
23/09:30am 21.0 SSW 4 7 1017.0 - 0.4 - - - - - - -
23/09:00am 20.8 SSW 4 5 1017.3 - 0.6 - - - - - - -
23/08:30am 20.9 S 5 6 1016.8 - 0.4 - - - - - - -
23/08:00am 21.1 S 4 5 1017.2 - 0.2 - - - - - - -
23/07:30am 21.0 S 4 6 1017.0 - 0.2 - - - - - - -
23/07:00am 20.4 S 5 8 1016.7 - 0.2 - - - - - - -
23/06:30am 20.3 S 5 7 1016.1 - 0.2 - - - - - - -
23/06:00am 20.0 S 2 6 1015.6 - 0.0 - - - - - - -
23/05:30am 20.1 SSW 3 5 1015.9 - 0.0 - - - - - - -
23/05:00am 20.1 S 4 6 1015.9 - 0.0 - - - - - - -
23/04:30am 20.3 WSW 4 5 1016.1 - 0.0 - - - - - - -
23/04:00am 20.6 CALM 0 3 1015.9 - 0.0 - - - - - - -
23/03:30am 20.6 S 2 5 1016.1 - 0.0 - - - - - - -
23/03:00am 20.7 SW 1 4 1016.1 - 0.0 - - - - - - -
23/02:30am 20.9 CALM 0 4 1016.1 - 0.0 - - - - - - -
23/02:00am 21.2 SSE 4 5 1016.2 - 0.0 - - - - - - -
23/01:30am 21.0 S 4 5 1016.2 - 0.0 - - - - - - -
23/01:00am 20.9 SSW 5 10 1016.5 - 0.0 - - - - - - -
23/12:30am 21.3 SSE 3 6 1016.3 - 0.0 - - - - - - -
23/12:00am 21.0 S 3 4 1017.0 - 0.0 - - - - - - -
 
Date/Time
EST
Temp

°C
Wind Pressure Rain
since 9am
mm
Weather Cloud Vis
km
Sea
Height
m
Swell
Dir
 
Speed
knots
Gust
knots
hPa Trend Height
m
Period
s
Dir
22/11:30pm 20.9 SW 3 4 1017.7 - 0.0 - - - - - - -
22/11:00pm 21.6 CALM 0 3 1017.7 - 0.0 - - - - - - -
22/10:30pm 21.8 S 4 6 1017.7 - 0.0 - - - - - - -
22/10:00pm 22.4 S 4 4 1017.5 - 0.0 - - - - - - -
22/09:30pm 22.9 SSW 3 4 1018.1 - 0.0 - - - - - - -
22/09:00pm 23.2 ESE 4 5 1017.7 - 0.0 - - - - - - -
22/08:30pm 23.6 SE 2 4 1018.3 - 0.0 - - - - - - -
22/08:00pm 23.6 E 3 6 1018.0 - 0.0 - - - - - - -
22/07:30pm 24.0 ENE 4 6 1017.7 - 0.0 - - - - - - -
22/07:00pm 24.5 ENE 5 8 1017.3 - 0.0 - - - - - - -
22/06:30pm 24.4 ENE 6 9 1016.7 - 0.0 - - - - - - -
22/06:00pm 24.8 ENE 6 8 1016.2 - 0.0 - - - - - - -
22/05:30pm 25.4 NE 8 11 1016.2 - 0.0 - - - - - - -
22/05:00pm 25.7 NE 9 13 1015.9 - 0.0 - - - - - - -
22/04:30pm 26.5 NNE 10 13 1015.8 - 0.0 - - - - - - -
22/04:00pm 27.0 NE 9 13 1015.6 - 0.0 - - - - - - -
22/03:30pm 27.5 NE 9 13 1015.6 - 0.0 - - - - - - -
22/03:00pm 27.8 NNE 9 12 1015.6 - 0.0 - - - - - - -
22/02:30pm 27.8 NNE 10 13 1016.0 - 0.0 - - - - - - -

Other Formats:

Comma delimited format used in spreadsheet applications
http://www.bom.gov.au/fwo/IDQ60701/IDQ60701.95369.axf

JavaScript Object Notation format (JSON) in row-major order
http://www.bom.gov.au/fwo/IDQ60701/IDQ60701.95369.json